createdAt,value
2019-01-08T00:02:04.209Z,67.11
2019-01-08T00:04:35.825Z,67.14
2019-01-08T00:07:07.473Z,67.09
2019-01-08T00:09:41.011Z,67.00
2019-01-08T00:12:17.898Z,66.99
2019-01-08T00:14:49.583Z,66.99
2019-01-08T00:17:23.046Z,66.90
2019-01-08T00:19:57.026Z,66.86
2019-01-08T00:22:28.673Z,66.85
2019-01-08T00:25:00.754Z,66.94
2019-01-08T00:27:32.368Z,67.01
2019-01-08T00:30:05.394Z,67.03
2019-01-08T00:32:37.002Z,67.01
2019-01-08T00:35:09.961Z,67.11
2019-01-08T00:37:42.367Z,67.11
2019-01-08T00:40:14.038Z,67.19
2019-01-08T00:42:46.048Z,67.28
2019-01-08T00:45:20.125Z,67.38
2019-01-08T00:47:52.815Z,67.45
2019-01-08T00:50:32.779Z,67.54
2019-01-08T00:53:04.472Z,67.54
2019-01-08T00:55:36.092Z,67.56
2019-01-08T00:58:08.038Z,67.61
2019-01-08T01:00:39.654Z,67.63
2019-01-08T01:03:11.250Z,67.65
2019-01-08T01:05:44.100Z,67.62
2019-01-08T01:08:16.455Z,67.56
2019-01-08T01:10:48.119Z,67.50
2019-01-08T01:13:19.821Z,67.54
2019-01-08T01:15:51.794Z,67.62
2019-01-08T01:18:23.464Z,67.56
2019-01-08T01:20:56.968Z,67.48
2019-01-08T01:23:28.594Z,67.47
2019-01-08T01:26:00.673Z,67.43
2019-01-08T01:28:32.300Z,67.47
2019-01-08T01:31:03.945Z,67.47
2019-01-08T01:33:35.611Z,67.45
2019-01-08T01:36:07.446Z,67.41
2019-01-08T01:38:39.115Z,67.37
2019-01-08T01:41:10.795Z,67.47
2019-01-08T01:43:43.594Z,67.58
2019-01-08T01:46:15.392Z,67.70
2019-01-08T01:48:49.181Z,67.74
2019-01-08T01:51:20.820Z,67.77
2019-01-08T01:53:52.677Z,67.82
2019-01-08T01:56:24.294Z,67.87
2019-01-08T01:58:55.922Z,67.97
2019-01-08T02:01:27.576Z,68.01
2019-01-08T02:04:00.865Z,68.03
2019-01-08T02:06:32.501Z,68.08
2019-01-08T02:09:05.219Z,68.12
2019-01-08T02:11:37.141Z,68.13
2019-01-08T02:14:08.812Z,68.13
2019-01-08T02:16:40.465Z,68.15
2019-01-08T02:19:13.189Z,68.16
2019-01-08T02:21:45.131Z,68.19
2019-01-08T02:24:16.912Z,68.17
2019-01-08T02:26:48.913Z,68.14
2019-01-08T02:29:21.210Z,68.18
2019-01-08T02:31:52.790Z,68.17
2019-01-08T02:34:24.461Z,68.13
2019-01-08T02:36:56.169Z,68.12
2019-01-08T02:39:27.913Z,68.08
2019-01-08T02:41:59.587Z,68.09
2019-01-08T02:44:31.531Z,68.10
2019-01-08T02:47:03.110Z,68.16
2019-01-08T02:49:34.814Z,68.19
2019-01-08T02:52:06.416Z,68.22
2019-01-08T02:54:38.307Z,68.26
2019-01-08T02:57:09.942Z,68.27
2019-01-08T02:59:41.793Z,68.28
2019-01-08T03:02:13.595Z,68.33
2019-01-08T03:04:45.594Z,68.37
2019-01-08T03:07:18.812Z,68.44
2019-01-08T03:09:50.608Z,68.46
2019-01-08T03:12:22.838Z,68.44
2019-01-08T03:14:54.469Z,68.48
2019-01-08T03:17:26.066Z,68.50
2019-01-08T03:19:57.679Z,68.54
2019-01-08T03:22:29.250Z,68.54
2019-01-08T03:25:01.834Z,68.55
2019-01-08T03:27:33.606Z,68.56
2019-01-08T03:30:05.798Z,68.51
2019-01-08T03:32:37.429Z,68.52
2019-01-08T03:35:09.069Z,68.51
2019-01-08T03:37:40.718Z,68.53
2019-01-08T03:40:12.375Z,68.59
2019-01-08T03:42:44.095Z,68.70
2019-01-08T03:45:15.716Z,68.71
2019-01-08T03:47:47.418Z,68.78
2019-01-08T03:50:19.908Z,68.83
2019-01-08T03:52:51.545Z,68.89
2019-01-08T03:55:24.284Z,68.90
2019-01-08T03:57:56.583Z,68.92
2019-01-08T04:00:28.177Z,68.96
2019-01-08T04:02:59.811Z,69.00
2019-01-08T04:05:31.436Z,69.07
2019-01-08T04:08:03.088Z,69.12
2019-01-08T04:10:35.062Z,69.14
2019-01-08T04:13:06.800Z,69.19
2019-01-08T04:15:38.595Z,69.26
2019-01-08T04:18:10.261Z,69.29
2019-01-08T04:20:41.885Z,69.31
2019-01-08T04:23:13.478Z,69.38
2019-01-08T04:25:45.375Z,69.47
2019-01-08T04:28:17.232Z,69.51
2019-01-08T04:30:48.845Z,69.52
2019-01-08T04:33:21.861Z,69.56
2019-01-08T04:35:53.729Z,69.59
2019-01-08T04:38:25.749Z,69.60
2019-01-08T04:40:57.344Z,69.65
2019-01-08T04:43:29.151Z,69.69
2019-01-08T04:46:00.868Z,69.66
2019-01-08T04:48:32.547Z,69.67
2019-01-08T04:51:04.568Z,69.67
2019-01-08T04:53:36.171Z,69.69
2019-01-08T04:56:07.799Z,69.71
2019-01-08T04:58:39.418Z,69.72
2019-01-08T05:01:11.378Z,69.78
2019-01-08T05:03:43.303Z,69.81
2019-01-08T05:06:14.943Z,69.87
2019-01-08T05:08:46.586Z,69.84
2019-01-08T05:11:18.410Z,69.91
2019-01-08T05:13:50.007Z,69.94
2019-01-08T05:16:21.782Z,70.00
2019-01-08T05:18:53.755Z,70.00
2019-01-08T05:21:25.633Z,70.04
2019-01-08T05:23:57.272Z,69.99
2019-01-08T05:26:29.014Z,69.97
2019-01-08T05:29:01.157Z,69.99
2019-01-08T05:31:33.139Z,70.01
2019-01-08T05:34:04.812Z,70.01
2019-01-08T05:36:36.819Z,70.01
2019-01-08T05:39:09.138Z,70.04
2019-01-08T05:41:40.760Z,70.02
2019-01-08T05:44:12.379Z,70.02
2019-01-08T05:46:44.409Z,70.02
2019-01-08T05:49:16.239Z,70.00
2019-01-08T05:51:47.855Z,70.01
2019-01-08T05:54:19.514Z,70.01
2019-01-08T05:56:51.154Z,70.04
2019-01-08T05:59:22.879Z,70.06
2019-01-08T06:01:54.649Z,70.05
2019-01-08T06:04:26.268Z,70.05
2019-01-08T06:06:57.946Z,70.02
2019-01-08T06:09:29.597Z,70.02
2019-01-08T06:12:01.209Z,70.04
2019-01-08T06:14:33.243Z,70.00
2019-01-08T06:17:04.924Z,69.96
2019-01-08T06:19:36.727Z,69.95
2019-01-08T06:22:08.368Z,69.95
2019-01-08T06:24:39.997Z,69.92
2019-01-08T06:27:11.622Z,69.98
2019-01-08T06:29:44.329Z,70.00
2019-01-08T06:32:16.029Z,70.03
2019-01-08T06:34:47.914Z,70.06
2019-01-08T06:37:19.945Z,70.09
2019-01-08T06:39:51.718Z,70.12
2019-01-08T06:42:23.399Z,70.12
2019-01-08T06:44:55.024Z,70.15
2019-01-08T06:47:26.723Z,70.20
2019-01-08T06:49:58.463Z,70.22
2019-01-08T06:52:30.098Z,70.27
2019-01-08T06:55:01.720Z,70.30
2019-01-08T06:57:33.529Z,70.34
2019-01-08T07:00:05.695Z,70.29
2019-01-08T07:02:38.530Z,70.19
2019-01-08T07:05:10.341Z,70.06
2019-01-08T07:07:41.990Z,69.94
2019-01-08T07:10:13.738Z,69.85
2019-01-08T07:12:45.485Z,69.83
2019-01-08T07:15:17.433Z,69.80
2019-01-08T07:17:49.079Z,69.74
2019-01-08T07:20:20.707Z,69.66
2019-01-08T07:22:52.448Z,69.63
2019-01-08T07:25:24.531Z,69.58
2019-01-08T07:27:56.175Z,69.57
2019-01-08T07:30:27.827Z,69.60
2019-01-08T07:33:00.264Z,69.58
2019-01-08T07:35:31.960Z,69.62
2019-01-08T07:38:03.816Z,69.67
2019-01-08T07:40:35.440Z,69.73
2019-01-08T07:43:07.073Z,69.72
2019-01-08T07:45:38.712Z,69.73
2019-01-08T07:48:10.524Z,69.76
2019-01-08T07:50:43.621Z,69.80
2019-01-08T07:53:15.404Z,69.83
2019-01-08T07:55:47.140Z,69.85
2019-01-08T07:58:18.806Z,69.85
2019-01-08T08:00:50.427Z,69.78
2019-01-08T08:03:22.061Z,69.72
2019-01-08T08:05:53.724Z,69.69
2019-01-08T08:08:25.542Z,69.62
2019-01-08T08:10:57.467Z,69.55
2019-01-08T08:13:29.232Z,69.49
2019-01-08T08:16:01.291Z,69.47
2019-01-08T08:18:32.936Z,69.44
2019-01-08T08:21:04.543Z,69.37
2019-01-08T08:23:36.357Z,69.38
2019-01-08T08:26:08.307Z,69.37
2019-01-08T08:28:40.025Z,69.33
2019-01-08T08:31:11.653Z,69.32
2019-01-08T08:33:43.287Z,69.33
2019-01-08T08:36:15.270Z,69.39
2019-01-08T08:38:47.047Z,69.43
2019-01-08T08:41:18.729Z,69.42
2019-01-08T08:43:50.347Z,69.44
2019-01-08T08:46:22.043Z,69.44
2019-01-08T08:48:54.065Z,69.42
2019-01-08T08:51:25.835Z,69.44
2019-01-08T08:53:57.765Z,69.49
2019-01-08T08:56:29.340Z,69.52
2019-01-08T08:59:00.984Z,69.55
2019-01-08T09:01:32.730Z,69.59
2019-01-08T09:04:04.334Z,69.63
2019-01-08T09:06:35.975Z,69.67
2019-01-08T09:09:08.449Z,69.72
2019-01-08T09:11:40.211Z,69.72
2019-01-08T09:14:17.059Z,69.68
2019-01-08T09:16:48.721Z,69.69
2019-01-08T09:19:20.676Z,69.70
2019-01-08T09:21:52.337Z,69.77
2019-01-08T09:24:25.161Z,69.81
2019-01-08T09:26:57.387Z,69.83
2019-01-08T09:29:29.027Z,69.77
2019-01-08T09:32:00.646Z,69.73
2019-01-08T09:34:32.263Z,69.71
2019-01-08T09:37:03.948Z,69.70
2019-01-08T09:39:36.225Z,69.71
2019-01-08T09:42:08.099Z,69.72
2019-01-08T09:44:39.814Z,69.71
2019-01-08T09:47:19.101Z,69.70
2019-01-08T09:49:50.705Z,69.68
2019-01-08T09:52:22.325Z,69.65
2019-01-08T09:54:54.013Z,69.68
2019-01-08T09:57:26.218Z,69.73
2019-01-08T09:59:57.848Z,69.81
2019-01-08T10:02:29.500Z,69.90
2019-01-08T10:05:01.115Z,69.98
2019-01-08T10:07:32.937Z,70.07
2019-01-08T10:10:04.582Z,70.12
2019-01-08T10:12:38.021Z,70.19
2019-01-08T10:15:09.690Z,70.22
2019-01-08T10:17:41.342Z,70.25
2019-01-08T10:20:13.292Z,70.27
2019-01-08T10:22:44.907Z,70.28
2019-01-08T10:25:16.594Z,70.31
2019-01-08T10:27:48.912Z,70.35
2019-01-08T10:30:20.563Z,70.40
2019-01-08T10:32:52.295Z,70.39
2019-01-08T10:35:25.284Z,70.32
2019-01-08T10:37:57.350Z,70.23
2019-01-08T10:40:29.017Z,70.13
2019-01-08T10:43:00.917Z,69.96
2019-01-08T10:45:34.467Z,69.80
2019-01-08T10:48:06.224Z,69.66
2019-01-08T10:50:39.177Z,69.60
2019-01-08T10:53:12.187Z,69.50
2019-01-08T10:55:43.851Z,69.36
2019-01-08T10:58:15.478Z,69.32
2019-01-08T11:00:47.210Z,69.28
2019-01-08T11:03:18.848Z,69.17
2019-01-08T11:05:50.491Z,69.11
2019-01-08T11:08:22.110Z,68.97
2019-01-08T11:10:53.786Z,68.84
2019-01-08T11:13:25.477Z,68.61
2019-01-08T11:15:57.258Z,68.38
2019-01-08T11:18:28.954Z,68.10
2019-01-08T11:21:00.710Z,67.95
2019-01-08T11:23:32.426Z,67.65
2019-01-08T11:26:04.127Z,67.41
2019-01-08T11:28:36.435Z,67.40
2019-01-08T11:31:08.222Z,67.21
2019-01-08T11:33:40.900Z,67.12
2019-01-08T11:36:12.614Z,66.61
2019-01-08T11:38:44.350Z,66.56
2019-01-08T11:41:16.448Z,66.46
2019-01-08T11:43:50.731Z,66.47
2019-01-08T11:46:21.507Z,66.17
2019-01-08T11:48:53.131Z,66.17
2019-01-08T11:51:24.966Z,65.88
2019-01-08T11:53:56.589Z,65.86
2019-01-08T11:56:29.940Z,65.83
2019-01-08T11:59:01.732Z,65.74
2019-01-08T12:01:33.520Z,65.57
2019-01-08T12:04:06.754Z,65.42
2019-01-08T12:06:38.378Z,65.44
2019-01-08T12:09:11.877Z,65.51
2019-01-08T12:11:44.602Z,65.23
2019-01-08T12:14:18.095Z,64.96
2019-01-08T12:16:50.024Z,64.76
2019-01-08T12:19:21.698Z,64.91
2019-01-08T12:21:53.596Z,64.87
2019-01-08T12:24:25.263Z,64.66
2019-01-08T12:26:57.523Z,64.62
2019-01-08T12:29:29.255Z,64.34
2019-01-08T12:32:06.413Z,64.65
2019-01-08T12:34:34.865Z,64.77
2019-01-08T12:37:06.518Z,64.88
2019-01-08T12:39:38.191Z,64.91
2019-01-08T12:42:11.690Z,64.90
2019-01-08T12:44:44.455Z,64.96
2019-01-08T12:47:16.564Z,64.97
2019-01-08T12:49:48.323Z,65.02
2019-01-08T12:52:20.036Z,65.07
2019-01-08T12:54:51.722Z,65.03
2019-01-08T12:57:24.638Z,65.08
2019-01-08T12:59:56.311Z,65.00
2019-01-08T13:02:28.021Z,65.03
2019-01-08T13:04:59.974Z,64.96
2019-01-08T13:07:31.667Z,64.96
2019-01-08T13:10:03.380Z,64.90
2019-01-08T13:12:35.113Z,64.91
2019-01-08T13:15:07.124Z,64.92
2019-01-08T13:17:38.845Z,64.90
2019-01-08T13:20:10.728Z,64.76
2019-01-08T13:22:42.562Z,64.70
2019-01-08T13:25:14.231Z,64.75
2019-01-08T13:27:47.396Z,64.60
2019-01-08T13:30:19.098Z,64.56
2019-01-08T13:32:50.795Z,64.61
2019-01-08T13:35:22.727Z,64.34
2019-01-08T13:37:54.371Z,64.39
2019-01-08T13:40:26.080Z,64.56
2019-01-08T13:43:00.683Z,64.57
2019-01-08T13:45:32.410Z,64.58
2019-01-08T13:48:04.055Z,64.54
2019-01-08T13:50:35.829Z,64.49
2019-01-08T13:53:08.575Z,64.48
2019-01-08T13:55:40.239Z,64.49
2019-01-08T13:58:12.232Z,64.50
2019-01-08T14:00:43.910Z,64.36
2019-01-08T14:03:15.688Z,64.41
2019-01-08T14:05:47.436Z,64.44
2019-01-08T14:08:20.373Z,64.49
2019-01-08T14:10:56.456Z,64.50
2019-01-08T14:13:25.610Z,64.53
2019-01-08T14:15:57.410Z,64.60
2019-01-08T14:18:29.060Z,64.61
2019-01-08T14:21:00.739Z,64.60
2019-01-08T14:23:32.663Z,64.59
2019-01-08T14:26:05.437Z,64.57
2019-01-08T14:28:37.445Z,64.62
2019-01-08T14:31:09.137Z,64.67
2019-01-08T14:33:40.859Z,64.70
2019-01-08T14:36:14.261Z,64.69
2019-01-08T14:38:47.729Z,64.67
2019-01-08T14:41:19.501Z,64.77
2019-01-08T14:43:53.955Z,64.79
2019-01-08T14:46:25.590Z,64.70
2019-01-08T14:48:57.325Z,64.75
2019-01-08T14:51:29.077Z,64.73
2019-01-08T14:54:00.940Z,64.74
2019-01-08T14:56:32.609Z,64.75
2019-01-08T14:59:04.317Z,64.65
2019-01-08T15:01:36.007Z,64.70
2019-01-08T15:04:07.736Z,64.73
2019-01-08T15:06:39.449Z,64.67
2019-01-08T15:09:11.238Z,64.59
2019-01-08T15:11:42.957Z,64.70
2019-01-08T15:14:15.624Z,64.67
2019-01-08T15:16:50.251Z,64.71
2019-01-08T15:19:22.116Z,64.67
2019-01-08T15:21:54.164Z,64.61
2019-01-08T15:24:27.109Z,64.63
2019-01-08T15:27:00.617Z,64.63
2019-01-08T15:29:51.452Z,64.70
2019-01-08T15:32:23.793Z,64.70
2019-01-08T15:34:55.558Z,64.72
2019-01-08T15:37:27.276Z,64.65
2019-01-08T15:39:58.992Z,64.65
2019-01-08T15:42:30.692Z,64.73
2019-01-08T15:45:02.595Z,64.76
2019-01-08T15:47:37.828Z,64.80
2019-01-08T15:50:10.021Z,64.83
2019-01-08T15:52:42.148Z,64.86
2019-01-08T15:55:13.885Z,64.86
2019-01-08T15:57:45.821Z,64.84
2019-01-08T16:00:18.679Z,64.87
2019-01-08T16:02:50.417Z,64.86
2019-01-08T16:05:22.229Z,64.83
2019-01-08T16:07:54.013Z,64.85
2019-01-08T16:10:25.701Z,64.84
2019-01-08T16:12:57.504Z,64.73
2019-01-08T16:15:29.226Z,64.63
2019-01-08T16:18:00.938Z,64.64
2019-01-08T16:20:33.861Z,64.64
2019-01-08T16:23:05.742Z,64.53
2019-01-08T16:25:37.617Z,64.58
2019-01-08T16:28:09.387Z,64.59
2019-01-08T16:30:42.728Z,64.57
2019-01-08T16:33:16.088Z,64.52
2019-01-08T16:35:48.041Z,64.53
2019-01-08T16:38:20.556Z,64.47
2019-01-08T16:40:52.423Z,64.45
2019-01-08T16:43:24.219Z,64.50
2019-01-08T16:45:55.934Z,64.48
2019-01-08T16:48:27.710Z,64.51
2019-01-08T16:50:59.424Z,64.53
2019-01-08T16:53:31.112Z,64.57
2019-01-08T16:56:03.096Z,64.53
2019-01-08T16:58:34.999Z,64.44
2019-01-08T17:01:06.852Z,64.49
2019-01-08T17:03:38.595Z,64.48
2019-01-08T17:06:10.309Z,64.53
2019-01-08T17:08:42.021Z,64.53
2019-01-08T17:11:13.720Z,64.50
2019-01-08T17:13:45.648Z,64.46
2019-01-08T17:16:18.843Z,64.47
2019-01-08T17:18:52.068Z,64.45
2019-01-08T17:21:24.091Z,64.47
2019-01-08T17:23:55.872Z,64.41
2019-01-08T17:26:27.579Z,64.45
2019-01-08T17:29:00.840Z,64.38
2019-01-08T17:31:32.529Z,64.41
2019-01-08T17:34:04.250Z,64.44
2019-01-08T17:36:36.201Z,64.50
2019-01-08T17:39:09.256Z,64.58
2019-01-08T17:41:41.019Z,64.58
2019-01-08T17:44:12.868Z,64.61
2019-01-08T17:46:44.574Z,64.56
2019-01-08T17:49:16.283Z,64.56
2019-01-08T17:51:48.165Z,64.58
2019-01-08T17:54:19.865Z,64.61
2019-01-08T17:56:52.001Z,64.64
2019-01-08T17:59:24.942Z,64.65
2019-01-08T18:02:03.054Z,64.68
2019-01-08T18:04:34.826Z,64.71
2019-01-08T18:07:06.539Z,64.73
2019-01-08T18:09:38.350Z,64.75
2019-01-08T18:12:10.071Z,64.78
2019-01-08T18:14:41.805Z,64.79
2019-01-08T18:17:13.648Z,64.83
2019-01-08T18:19:45.577Z,64.81
2019-01-08T18:22:17.337Z,64.82
2019-01-08T18:24:49.030Z,64.84
2019-01-08T18:27:21.260Z,64.83
2019-01-08T18:29:57.901Z,64.80
2019-01-08T18:32:29.728Z,64.79
2019-01-08T18:35:01.791Z,64.83
2019-01-08T18:37:33.629Z,64.89
2019-01-08T18:40:06.292Z,65.00
2019-01-08T18:42:38.601Z,65.07
2019-01-08T18:45:11.082Z,65.07
2019-01-08T18:47:43.789Z,65.02
2019-01-08T18:50:15.542Z,64.96
2019-01-08T18:52:47.387Z,64.92
2019-01-08T18:55:19.336Z,64.90
2019-01-08T18:57:51.177Z,64.86
2019-01-08T19:00:22.965Z,64.85
2019-01-08T19:02:54.960Z,64.79
2019-01-08T19:05:28.349Z,64.71
2019-01-08T19:08:00.190Z,64.72
2019-01-08T19:10:32.055Z,64.74
2019-01-08T19:13:03.879Z,64.67
2019-01-08T19:15:41.024Z,64.64
2019-01-08T19:18:14.823Z,64.48
2019-01-08T19:20:46.935Z,64.40
2019-01-08T19:23:18.622Z,64.33
2019-01-08T19:25:50.395Z,64.34
2019-01-08T19:28:22.516Z,64.29
2019-01-08T19:30:55.537Z,64.33
2019-01-08T19:33:27.388Z,64.35
2019-01-08T19:35:59.494Z,64.36
2019-01-08T19:38:31.238Z,64.34
2019-01-08T19:41:03.164Z,64.27
2019-01-08T19:43:36.893Z,64.23
2019-01-08T19:46:08.793Z,64.18
2019-01-08T19:48:40.571Z,64.15
2019-01-08T19:51:12.514Z,64.16
2019-01-08T19:53:44.331Z,64.15
2019-01-08T19:56:18.059Z,64.13
2019-01-08T19:58:49.845Z,64.03
2019-01-08T20:01:21.572Z,63.99
2019-01-08T20:03:53.404Z,63.97
2019-01-08T20:06:25.421Z,63.85
2019-01-08T20:08:57.334Z,63.74
2019-01-08T20:11:29.154Z,63.69
2019-01-08T20:14:00.921Z,63.67
2019-01-08T20:16:34.277Z,63.66
2019-01-08T20:19:06.349Z,63.56
2019-01-08T20:21:38.213Z,63.51
2019-01-08T20:24:10.038Z,63.42
2019-01-08T20:26:41.790Z,63.33
2019-01-08T20:29:13.964Z,63.36
2019-01-08T20:31:45.755Z,63.36
2019-01-08T20:34:26.230Z,63.34
2019-01-08T20:36:52.263Z,63.38
2019-01-08T20:39:25.375Z,63.41
2019-01-08T20:41:57.105Z,63.50
2019-01-08T20:44:29.084Z,63.54
2019-01-08T20:47:00.917Z,63.50
2019-01-08T20:49:32.699Z,63.40
2019-01-08T20:52:05.445Z,63.34
2019-01-08T20:54:37.297Z,63.32
2019-01-08T20:57:09.530Z,63.35
2019-01-08T20:59:41.315Z,63.32
2019-01-08T21:02:13.055Z,63.31
2019-01-08T21:04:44.988Z,63.35
2019-01-08T21:07:18.005Z,63.34
2019-01-08T21:09:49.980Z,63.34
2019-01-08T21:12:21.688Z,63.32
2019-01-08T21:14:53.624Z,63.38
2019-01-08T21:17:25.388Z,63.38
2019-01-08T21:20:02.273Z,63.39
2019-01-08T21:22:34.132Z,63.34
2019-01-08T21:25:06.068Z,63.35
2019-01-08T21:27:38.788Z,63.39
2019-01-08T21:30:10.980Z,63.37
2019-01-08T21:32:42.644Z,63.36
2019-01-08T21:35:14.434Z,63.28
2019-01-08T21:37:46.242Z,63.26
2019-01-08T21:40:19.180Z,63.14
2019-01-08T21:42:53.456Z,63.18
2019-01-08T21:45:25.313Z,63.19
2019-01-08T21:47:57.744Z,63.10
2019-01-08T21:50:32.720Z,63.00
2019-01-08T21:53:04.500Z,62.97
2019-01-08T21:55:36.196Z,63.02
2019-01-08T21:58:07.855Z,63.01
2019-01-08T22:00:40.015Z,63.00
2019-01-08T22:03:11.661Z,63.06
2019-01-08T22:05:45.044Z,63.07
2019-01-08T22:08:16.710Z,63.12
2019-01-08T22:10:49.106Z,63.11
2019-01-08T22:13:23.061Z,63.15
2019-01-08T22:15:55.034Z,63.16
2019-01-08T22:18:28.157Z,63.11
2019-01-08T22:21:00.071Z,63.18
2019-01-08T22:23:32.364Z,63.22
2019-01-08T22:26:04.508Z,63.29
2019-01-08T22:28:40.676Z,63.32
2019-01-08T22:31:14.279Z,63.25
2019-01-08T22:33:47.199Z,63.23
2019-01-08T22:36:19.147Z,63.17
2019-01-08T22:38:50.923Z,63.17
2019-01-08T22:41:24.639Z,63.26
2019-01-08T22:43:57.344Z,63.34
2019-01-08T22:46:29.168Z,63.41
2019-01-08T22:49:00.987Z,63.47
2019-01-08T22:51:32.699Z,63.41
2019-01-08T22:54:04.962Z,63.47
2019-01-08T22:56:37.691Z,63.51
2019-01-08T22:59:09.434Z,63.57
2019-01-08T23:01:43.640Z,63.58
2019-01-08T23:04:15.633Z,63.50
2019-01-08T23:06:47.419Z,63.53
2019-01-08T23:09:19.094Z,63.54
2019-01-08T23:11:52.259Z,63.50
2019-01-08T23:14:28.540Z,63.46
2019-01-08T23:17:01.329Z,63.41
2019-01-08T23:19:36.997Z,63.38
2019-01-08T23:22:08.961Z,63.38
2019-01-08T23:24:40.837Z,63.38
2019-01-08T23:27:12.577Z,63.43
2019-01-08T23:29:44.960Z,63.51
2019-01-08T23:32:17.201Z,63.55
2019-01-08T23:34:48.925Z,63.55
2019-01-08T23:37:20.682Z,63.56
2019-01-08T23:39:52.309Z,63.54
2019-01-08T23:42:24.525Z,63.58
2019-01-08T23:44:56.512Z,63.58
2019-01-08T23:47:28.092Z,63.59
2019-01-08T23:49:59.789Z,63.59
2019-01-08T23:53:17.959Z,63.61
2019-01-08T23:55:51.543Z,63.69
2019-01-08T23:58:23.163Z,63.84
